Time;durP1;ratioP1;P1;durP2;ratioP2;P2;SDS_P1;SDS_P2;PMS_P1;PMS_P2;Temp;Humidity;BMP_temperature;BMP_pressure;BME280_temperature;BME280_humidity;BME280_pressure;Samples;Min_cycle;Max_cycle;Signal;HPM_P1;HPM_P2
2022/03/10 00:01:50;;;;;;;20.15;9.50;;;3.60;76.00;;;;;;5040594;28;20041;-54
2022/03/10 00:04:16;;;;;;;21.38;9.88;;;3.50;76.60;;;;;;5040130;28;20031;-60
2022/03/10 00:06:41;;;;;;;19.00;9.82;;;3.50;76.30;;;;;;5038904;28;20064;-61
2022/03/10 00:09:07;;;;;;;16.20;9.73;;;3.50;76.00;;;;;;5035845;28;20113;-60
2022/03/10 00:11:32;;;;;;;24.83;11.20;;;3.50;75.90;;;;;;5038732;28;20033;-59
2022/03/10 00:13:58;;;;;;;21.05;9.65;;;3.50;76.50;;;;;;5037746;28;20487;-58
2022/03/10 00:16:24;;;;;;;21.35;10.48;;;3.50;76.60;;;;;;5040204;28;20017;-60
2022/03/10 00:18:49;;;;;;;22.98;10.10;;;3.50;76.20;;;;;;5042084;28;20017;-58
2022/03/10 00:21:15;;;;;;;19.00;9.65;;;3.50;76.90;;;;;;5034731;28;20017;-57
2022/03/10 00:23:40;;;;;;;22.63;10.02;;;3.40;77.10;;;;;;5049187;28;20033;-59
2022/03/10 00:26:06;;;;;;;16.30;9.05;;;3.50;76.70;;;;;;5046541;28;20055;-59
2022/03/10 00:28:32;;;;;;;22.63;10.05;;;3.50;77.10;;;;;;5047660;28;20466;-59
2022/03/10 00:30:58;;;;;;;19.17;10.35;;;3.40;76.80;;;;;;5047925;28;20021;-59
2022/03/10 00:33:24;;;;;;;20.05;10.15;;;3.40;77.50;;;;;;5039214;28;20025;-56
2022/03/10 00:35:49;;;;;;;21.35;10.35;;;3.30;77.70;;;;;;5046283;28;20091;-57
2022/03/10 00:38:15;;;;;;;23.73;10.70;;;3.30;78.50;;;;;;5042704;28;20497;-58
2022/03/10 00:40:41;;;;;;;19.67;10.55;;;3.30;77.90;;;;;;5042299;28;20051;-59
2022/03/10 00:43:14;;;;;;;20.98;10.15;;;3.30;78.80;;;;;;5033341;28;20017;-59
2022/03/10 00:45:40;;;;;;;19.88;10.50;;;3.20;78.40;;;;;;5042888;28;20033;-58
2022/03/10 00:48:06;;;;;;;19.17;10.70;;;3.10;78.20;;;;;;5044933;28;20041;-57
2022/03/10 00:50:32;;;;;;;20.35;9.85;;;3.20;78.30;;;;;;5032271;28;20063;-60
2022/03/10 00:52:59;;;;;;;20.27;10.55;;;3.20;78.50;;;;;;5041832;28;20439;-59
2022/03/10 00:55:25;;;;;;;18.85;10.00;;;3.30;77.70;;;;;;5038779;28;20025;-56
2022/03/10 00:57:51;;;;;;;22.60;10.63;;;3.20;78.10;;;;;;5035773;28;20072;-58
2022/03/10 01:00:18;;;;;;;23.67;10.43;;;3.10;78.80;;;;;;5031267;28;20470;-58
2022/03/10 01:02:44;;;;;;;19.95;10.65;;;3.10;78.80;;;;;;5047243;28;20415;-58
2022/03/10 01:05:10;;;;;;;22.40;10.35;;;3.10;78.80;;;;;;5041015;28;20033;-57
2022/03/10 01:07:37;;;;;;;29.30;11.40;;;3.10;78.70;;;;;;5038023;28;20517;-57
2022/03/10 01:10:05;;;;;;;20.48;10.40;;;3.10;79.00;;;;;;5031035;28;20045;-58
2022/03/10 01:12:31;;;;;;;23.38;12.00;;;3.10;79.10;;;;;;5031192;28;20091;-59
2022/03/10 01:14:56;;;;;;;23.70;10.93;;;3.20;79.20;;;;;;5030171;28;20459;-57
2022/03/10 01:17:22;;;;;;;19.55;10.25;;;3.30;79.10;;;;;;5033432;28;20025;-58
2022/03/10 01:19:48;;;;;;;24.80;11.07;;;3.30;79.50;;;;;;5047509;28;20036;-59
2022/03/10 01:22:14;;;;;;;22.38;10.18;;;3.20;79.20;;;;;;5041384;28;20021;-59
2022/03/10 01:24:41;;;;;;;24.42;11.57;;;3.20;79.30;;;;;;5035941;28;20199;-58
2022/03/10 01:27:07;;;;;;;22.13;10.77;;;3.20;79.10;;;;;;5036850;28;20029;-60
2022/03/10 01:29:32;;;;;;;21.48;10.15;;;3.30;79.00;;;;;;5041182;28;20044;-58
2022/03/10 01:31:58;;;;;;;22.90;10.80;;;3.30;78.70;;;;;;5049869;28;20025;-58
2022/03/10 01:34:24;;;;;;;27.48;12.20;;;3.30;78.80;;;;;;5044423;28;20459;-59
2022/03/10 01:36:49;;;;;;;24.00;10.98;;;3.30;78.80;;;;;;5045123;28;20524;-59
2022/03/10 01:39:15;;;;;;;19.98;11.18;;;3.30;78.90;;;;;;5030582;28;20026;-59
2022/03/10 01:41:40;;;;;;;19.75;10.73;;;3.20;78.90;;;;;;5032847;28;20044;-58
2022/03/10 01:44:08;;;;;;;21.20;10.07;;;3.30;79.10;;;;;;5035586;28;20026;-59
2022/03/10 01:46:35;;;;;;;19.83;10.43;;;3.30;79.00;;;;;;5032809;28;20040;-59
2022/03/10 01:49:01;;;;;;;21.60;11.10;;;3.20;79.10;;;;;;5048486;28;20119;-59
2022/03/10 01:51:28;;;;;;;19.88;10.30;;;3.20;79.00;;;;;;5048462;28;20394;-59
2022/03/10 01:53:53;;;;;;;23.73;10.75;;;3.20;79.10;;;;;;5032568;28;20053;-59
2022/03/10 01:56:21;;;;;;;21.33;10.55;;;3.20;79.30;;;;;;5033455;28;20521;-59
2022/03/10 01:58:48;;;;;;;19.20;10.23;;;3.00;80.30;;;;;;5036846;28;20021;-56
2022/03/10 02:01:15;;;;;;;24.10;10.40;;;3.00;79.80;;;;;;5048271;28;20040;-57
2022/03/10 02:03:41;;;;;;;20.25;10.27;;;2.90;79.90;;;;;;5039018;28;20037;-59
2022/03/10 02:06:08;;;;;;;19.70;9.90;;;2.90;80.00;;;;;;5048585;28;20453;-58
2022/03/10 02:11:19;;;;;;;24.48;12.00;;;3.00;79.40;;;;;;5049632;28;20522;-58
2022/03/10 02:13:45;;;;;;;18.75;10.18;;;3.10;79.40;;;;;;5036370;28;20037;-59
2022/03/10 02:18:56;;;;;;;21.13;10.60;;;3.00;79.40;;;;;;5035874;28;20419;-58
2022/03/10 02:21:22;;;;;;;22.33;11.70;;;2.90;79.90;;;;;;5029876;28;20026;-59
2022/03/10 02:23:48;;;;;;;21.58;9.95;;;2.90;80.20;;;;;;5029421;28;20030;-58
2022/03/10 02:26:14;;;;;;;40.42;14.05;;;2.80;80.80;;;;;;5030162;28;20067;-59
2022/03/10 02:28:41;;;;;;;21.45;10.23;;;2.70;80.40;;;;;;5035718;28;20037;-59
2022/03/10 02:31:07;;;;;;;28.58;9.90;;;2.60;81.60;;;;;;5029776;28;20029;-59
2022/03/10 02:33:33;;;;;;;21.02;10.38;;;2.50;81.40;;;;;;5037300;28;20044;-59
2022/03/10 02:35:58;;;;;;;19.92;9.50;;;2.50;81.40;;;;;;5033194;28;20033;-56
2022/03/10 02:38:24;;;;;;;23.08;9.93;;;2.50;80.70;;;;;;5029884;28;20042;-59
2022/03/10 02:40:50;;;;;;;20.92;10.20;;;2.40;81.20;;;;;;5029805;28;20415;-59
2022/03/10 02:43:18;;;;;;;19.55;9.70;;;2.40;81.20;;;;;;5029552;28;20025;-59
2022/03/10 02:45:45;;;;;;;18.25;9.43;;;2.40;81.40;;;;;;5037214;28;20116;-59
2022/03/10 02:48:11;;;;;;;19.05;9.27;;;2.40;81.80;;;;;;5033597;28;20035;-59
2022/03/10 02:50:37;;;;;;;23.08;10.00;;;2.30;82.50;;;;;;5047689;28;20486;-58
2022/03/10 02:53:02;;;;;;;18.50;8.88;;;2.30;81.80;;;;;;5033527;28;20037;-58
2022/03/10 02:55:28;;;;;;;16.50;9.40;;;2.40;81.90;;;;;;5029657;28;20037;-58
2022/03/10 02:57:54;;;;;;;19.83;9.80;;;2.40;81.60;;;;;;5036292;28;20512;-58
2022/03/10 03:00:19;;;;;;;16.85;8.68;;;2.50;81.10;;;;;;5033253;28;20576;-57
2022/03/10 03:05:18;;;;;;;19.25;9.32;;;2.60;80.70;;;;;;5018411;28;20060;-53
2022/03/10 03:07:45;;;;;;;16.35;9.07;;;2.70;80.70;;;;;;5023756;28;20030;-56
2022/03/10 03:10:11;;;;;;;20.50;9.20;;;2.70;80.50;;;;;;5014152;28;20107;-58
2022/03/10 03:12:45;;;;;;;16.77;9.57;;;2.80;80.30;;;;;;5028617;28;20025;-58
2022/03/10 03:15:11;;;;;;;18.10;9.40;;;2.70;80.40;;;;;;5012602;28;20662;-58
2022/03/10 03:17:36;;;;;;;23.48;8.93;;;2.70;80.30;;;;;;5012903;28;20064;-54
2022/03/10 03:20:04;;;;;;;23.77;9.77;;;2.70;80.90;;;;;;5012716;28;20033;-55
2022/03/10 03:22:30;;;;;;;16.70;8.77;;;2.70;80.20;;;;;;5011126;28;20033;-57
2022/03/10 03:24:56;;;;;;;16.83;8.68;;;2.70;80.30;;;;;;5003563;28;20034;-57
2022/03/10 03:27:22;;;;;;;15.52;8.82;;;2.60;80.60;;;;;;5012302;28;20034;-59
2022/03/10 03:29:47;;;;;;;17.45;9.63;;;2.60;80.70;;;;;;5010649;28;20412;-57
2022/03/10 03:32:13;;;;;;;17.48;9.18;;;2.60;81.00;;;;;;5012325;28;20034;-57
2022/03/10 03:34:39;;;;;;;17.88;9.75;;;2.50;81.20;;;;;;5010885;28;20037;-57
2022/03/10 03:37:04;;;;;;;17.55;8.90;;;2.50;81.40;;;;;;5010355;28;20026;-53
2022/03/10 03:39:30;;;;;;;19.65;9.63;;;2.50;81.30;;;;;;5008974;28;20110;-58
2022/03/10 03:41:56;;;;;;;15.63;8.05;;;2.40;81.60;;;;;;5012569;28;20097;-57
2022/03/10 03:44:21;;;;;;;16.42;8.93;;;2.40;81.60;;;;;;5011388;28;20060;-54
2022/03/10 03:46:48;;;;;;;19.27;8.45;;;2.30;81.70;;;;;;5013774;28;20030;-58
2022/03/10 03:49:13;;;;;;;16.20;8.48;;;2.20;82.10;;;;;;5000090;28;20038;-59
2022/03/10 03:51:39;;;;;;;16.38;8.52;;;2.30;81.80;;;;;;5013370;28;20030;-57
2022/03/10 03:54:06;;;;;;;18.50;9.45;;;2.30;81.90;;;;;;5008022;28;20080;-56
2022/03/10 03:56:32;;;;;;;18.33;8.40;;;2.30;81.40;;;;;;5012224;28;20030;-58
2022/03/10 03:58:57;;;;;;;17.75;8.43;;;2.30;81.00;;;;;;5012079;28;20544;-58
2022/03/10 04:01:23;;;;;;;17.65;9.02;;;2.50;80.40;;;;;;5005837;28;20038;-57
2022/03/10 04:03:48;;;;;;;16.17;8.20;;;2.50;80.20;;;;;;5003826;28;20037;-60
2022/03/10 04:06:16;;;;;;;15.25;9.00;;;2.50;80.20;;;;;;5011959;28;20033;-58
2022/03/10 04:08:41;;;;;;;15.52;8.15;;;2.50;80.40;;;;;;5008394;28;20075;-58
2022/03/10 04:11:07;;;;;;;17.85;8.93;;;2.40;80.70;;;;;;5011910;28;20112;-56
2022/03/10 04:13:32;;;;;;;19.00;9.07;;;2.40;80.90;;;;;;5011006;28;20085;-55
2022/03/10 04:15:58;;;;;;;16.85;8.13;;;2.30;81.30;;;;;;5011667;28;20127;-58
2022/03/10 04:18:23;;;;;;;18.98;7.78;;;2.20;81.30;;;;;;5008447;28;20486;-56
2022/03/10 04:20:49;;;;;;;16.50;8.38;;;2.20;81.80;;;;;;5003342;28;20396;-56
2022/03/10 04:23:15;;;;;;;20.10;8.80;;;2.10;82.00;;;;;;5010437;28;20048;-54
2022/03/10 04:25:41;;;;;;;14.43;7.60;;;2.10;82.40;;;;;;5011626;28;20037;-57
2022/03/10 04:28:07;;;;;;;18.90;9.73;;;2.10;82.50;;;;;;5011742;28;20034;-57
2022/03/10 04:30:37;;;;;;;15.63;7.85;;;2.10;82.50;;;;;;5011789;28;20029;-58
2022/03/10 04:33:02;;;;;;;17.58;8.63;;;2.10;82.90;;;;;;5010194;28;20042;-52
2022/03/10 04:35:29;;;;;;;16.25;9.15;;;2.20;83.00;;;;;;5011032;28;20443;-57
2022/03/10 04:37:55;;;;;;;18.10;8.43;;;2.10;83.40;;;;;;5010022;28;20029;-55
2022/03/10 04:40:22;;;;;;;15.77;7.38;;;2.10;82.80;;;;;;5002326;28;20527;-56
2022/03/10 04:42:49;;;;;;;17.52;8.18;;;2.10;82.80;;;;;;5010118;28;20060;-57
2022/03/10 04:45:15;;;;;;;18.52;8.43;;;2.10;82.80;;;;;;5011947;28;20041;-55
2022/03/10 04:47:41;;;;;;;17.05;8.95;;;2.10;82.90;;;;;;5005536;28;20041;-59
2022/03/10 04:50:08;;;;;;;16.67;7.90;;;2.10;82.90;;;;;;5010810;28;20064;-56
2022/03/10 04:52:34;;;;;;;19.02;8.73;;;2.00;82.80;;;;;;5006350;28;20034;-55
2022/03/10 04:55:00;;;;;;;16.70;8.15;;;2.00;82.90;;;;;;5010744;28;20377;-56
2022/03/10 04:57:26;;;;;;;25.95;8.75;;;2.00;82.80;;;;;;5011587;28;20030;-58
2022/03/10 04:59:51;;;;;;;14.90;7.93;;;2.00;82.90;;;;;;5010419;28;20108;-53
2022/03/10 05:02:17;;;;;;;15.23;8.25;;;2.00;83.10;;;;;;5009455;28;20563;-57
2022/03/10 05:04:43;;;;;;;14.52;7.88;;;1.90;83.80;;;;;;5009806;28;20050;-56
2022/03/10 05:07:08;;;;;;;16.60;8.77;;;1.90;83.70;;;;;;5000855;28;20045;-56
2022/03/10 05:09:34;;;;;;;15.13;8.57;;;1.90;84.10;;;;;;5009976;28;20408;-57
2022/03/10 05:11:59;;;;;;;16.33;8.40;;;1.80;84.30;;;;;;5007634;28;20064;-55
2022/03/10 05:14:25;;;;;;;16.92;8.60;;;1.70;84.10;;;;;;5010583;28;20180;-56
2022/03/10 05:16:51;;;;;;;18.33;9.27;;;1.70;84.70;;;;;;5011267;28;20484;-56
2022/03/10 05:19:17;;;;;;;19.67;8.15;;;1.70;84.60;;;;;;5007768;28;20026;-55
2022/03/10 05:21:43;;;;;;;14.15;7.53;;;1.60;84.50;;;;;;5000341;28;20041;-56
2022/03/10 05:24:08;;;;;;;19.33;7.40;;;1.70;84.30;;;;;;5005833;28;20030;-57
2022/03/10 05:26:34;;;;;;;16.23;8.43;;;1.70;84.50;;;;;;5005059;28;20488;-56
2022/03/10 05:29:00;;;;;;;17.92;8.35;;;1.70;84.70;;;;;;5009905;28;20045;-56
2022/03/10 05:31:27;;;;;;;16.50;8.63;;;1.70;85.10;;;;;;5011273;28;20117;-58
2022/03/10 05:33:53;;;;;;;19.52;9.40;;;1.70;84.90;;;;;;5009619;28;20053;-56
2022/03/10 05:36:19;;;;;;;17.27;8.65;;;1.70;85.20;;;;;;5001591;28;20046;-58
2022/03/10 05:38:44;;;;;;;16.88;8.55;;;1.70;85.20;;;;;;4999865;28;20033;-54
2022/03/10 05:41:10;;;;;;;17.48;9.13;;;1.70;85.10;;;;;;5009241;28;20030;-56
2022/03/10 05:43:36;;;;;;;23.17;9.70;;;1.80;84.90;;;;;;5010043;28;20026;-58
2022/03/10 05:46:02;;;;;;;21.65;9.63;;;1.90;84.40;;;;;;5010887;28;20034;-54
2022/03/10 05:48:28;;;;;;;17.35;8.40;;;1.80;85.20;;;;;;5010747;28;20034;-58
2022/03/10 05:50:53;;;;;;;22.20;10.15;;;1.70;85.20;;;;;;5010075;28;20033;-60
2022/03/10 05:53:19;;;;;;;16.55;9.60;;;1.70;85.00;;;;;;5008875;28;20033;-59
2022/03/10 05:55:45;;;;;;;16.60;7.68;;;1.60;84.80;;;;;;5009656;28;20096;-58
2022/03/10 05:58:11;;;;;;;19.15;9.07;;;1.70;85.00;;;;;;5010262;28;20030;-62
2022/03/10 06:00:36;;;;;;;14.73;8.20;;;1.70;84.70;;;;;;5010549;28;20472;-58
2022/03/10 06:03:02;;;;;;;17.25;8.82;;;1.80;84.50;;;;;;5005321;28;20038;-57
2022/03/10 06:05:28;;;;;;;18.00;9.10;;;1.90;84.30;;;;;;5010598;28;20034;-58
2022/03/10 06:07:53;;;;;;;16.27;8.48;;;1.90;84.30;;;;;;5006457;28;20061;-60
2022/03/10 06:10:19;;;;;;;18.70;8.70;;;2.00;84.20;;;;;;5008750;28;20029;-59
2022/03/10 06:12:45;;;;;;;23.70;7.28;;;2.00;83.50;;;;;;5008094;28;20034;-54
2022/03/10 06:15:11;;;;;;;15.45;7.82;;;2.20;82.40;;;;;;5010029;28;20030;-56
2022/03/10 06:17:37;;;;;;;16.80;7.65;;;2.30;82.20;;;;;;5008838;28;20018;-59
2022/03/10 06:20:04;;;;;;;17.27;7.90;;;2.30;83.10;;;;;;5012506;28;20118;-59
2022/03/10 06:22:31;;;;;;;16.98;7.70;;;2.30;82.40;;;;;;5008569;28;20050;-57
2022/03/10 06:24:57;;;;;;;15.60;7.47;;;2.40;82.00;;;;;;5005578;28;20032;-58
2022/03/10 06:27:24;;;;;;;18.92;9.25;;;2.40;82.10;;;;;;5009265;28;20033;-58
2022/03/10 06:29:50;;;;;;;19.20;7.95;;;2.50;82.30;;;;;;5007792;28;20076;-58
2022/03/10 06:32:18;;;;;;;16.98;8.50;;;2.50;83.10;;;;;;5004737;28;20834;-56
2022/03/10 06:34:44;;;;;;;18.23;9.35;;;2.50;82.60;;;;;;5008696;28;20411;-57
2022/03/10 06:37:10;;;;;;;13.13;7.20;;;2.60;81.80;;;;;;5006902;28;20041;-60
2022/03/10 06:39:36;;;;;;;14.48;7.35;;;2.70;81.50;;;;;;5009370;28;20038;-59
2022/03/10 06:42:05;;;;;;;21.40;10.65;;;2.80;81.60;;;;;;5009587;28;20518;-58
2022/03/10 06:44:31;;;;;;;15.05;7.63;;;2.90;80.60;;;;;;5009169;28;20022;-59
2022/03/10 06:46:57;;;;;;;17.02;9.02;;;3.10;80.40;;;;;;5001743;28;20498;-58
2022/03/10 06:49:23;;;;;;;17.58;8.25;;;3.20;80.00;;;;;;5024389;28;20026;-60
2022/03/10 06:51:49;;;;;;;14.85;7.72;;;3.40;79.60;;;;;;5002267;28;20023;-59
2022/03/10 06:54:15;;;;;;;23.27;8.65;;;3.50;79.40;;;;;;5003953;28;20037;-58
2022/03/10 06:56:41;;;;;;;15.52;8.40;;;3.60;79.30;;;;;;5006532;28;20022;-59
2022/03/10 06:59:07;;;;;;;16.35;8.02;;;3.70;78.90;;;;;;5012691;28;20073;-58
2022/03/10 07:01:33;;;;;;;20.27;8.40;;;3.90;78.70;;;;;;5010888;28;20381;-61
2022/03/10 07:03:59;;;;;;;14.93;7.88;;;4.20;78.50;;;;;;5001210;28;20045;-59
2022/03/10 07:06:25;;;;;;;18.73;9.05;;;4.80;77.30;;;;;;5012060;28;20038;-60
2022/03/10 07:08:51;;;;;;;16.17;8.75;;;5.40;75.90;;;;;;5008376;28;20033;-59
2022/03/10 07:11:17;;;;;;;15.80;9.35;;;6.20;74.60;;;;;;5012365;28;20435;-61
2022/03/10 07:13:44;;;;;;;19.73;8.65;;;7.50;72.20;;;;;;5012323;28;20068;-61
2022/03/10 07:16:09;;;;;;;15.45;9.70;;;8.60;68.90;;;;;;5012604;28;20469;-58
2022/03/10 07:18:35;;;;;;;20.75;9.25;;;9.30;66.60;;;;;;5009813;28;20121;-59
2022/03/10 07:21:04;;;;;;;12.80;7.93;;;9.10;66.50;;;;;;5011114;28;20033;-57
2022/03/10 07:23:30;;;;;;;23.35;10.15;;;8.50;66.10;;;;;;5011810;28;20800;-60
2022/03/10 07:25:56;;;;;;;20.90;9.68;;;8.00;67.00;;;;;;5012413;28;20033;-59
2022/03/10 07:28:21;;;;;;;17.65;9.90;;;7.30;69.20;;;;;;5013825;28;20038;-58
2022/03/10 07:30:47;;;;;;;20.00;10.02;;;6.90;70.60;;;;;;5012966;28;20104;-59
2022/03/10 07:33:12;;;;;;;17.33;8.88;;;6.50;70.10;;;;;;5010333;28;20487;-61
2022/03/10 07:35:38;;;;;;;18.20;9.10;;;6.30;71.80;;;;;;5012346;28;20034;-59
2022/03/10 07:38:04;;;;;;;16.45;9.98;;;6.20;72.80;;;;;;5007126;28;20478;-58
2022/03/10 07:40:29;;;;;;;18.17;10.77;;;6.10;71.80;;;;;;5006089;28;20102;-60
2022/03/10 07:42:55;;;;;;;16.45;9.57;;;6.10;72.70;;;;;;5011644;28;20029;-60
2022/03/10 07:45:20;;;;;;;21.83;9.93;;;6.00;72.20;;;;;;5010761;28;20574;-57
2022/03/10 07:47:46;;;;;;;16.58;9.80;;;5.90;73.10;;;;;;5009791;28;20030;-60
2022/03/10 07:50:12;;;;;;;19.05;10.23;;;6.00;73.50;;;;;;5005215;28;20440;-59
2022/03/10 07:52:37;;;;;;;18.88;10.40;;;6.10;72.70;;;;;;5010063;28;20043;-58
2022/03/10 07:55:05;;;;;;;19.95;9.93;;;6.20;72.70;;;;;;5011867;28;20084;-55
2022/03/10 07:57:31;;;;;;;21.23;11.32;;;6.20;72.50;;;;;;5010337;28;21933;-56
2022/03/10 07:59:56;;;;;;;18.48;8.05;;;6.30;72.50;;;;;;4982655;28;20018;-57
2022/03/10 08:02:22;;;;;;;22.38;11.50;;;6.30;72.50;;;;;;4990177;28;20030;-57
2022/03/10 08:04:48;;;;;;;18.30;9.85;;;6.50;73.00;;;;;;4991659;28;20038;-59
2022/03/10 08:07:13;;;;;;;25.60;10.93;;;6.60;73.40;;;;;;4989766;28;20027;-57
2022/03/10 08:09:39;;;;;;;21.25;9.95;;;6.50;73.00;;;;;;4991490;28;20030;-58
2022/03/10 08:12:05;;;;;;;20.17;9.68;;;6.60;73.90;;;;;;4990215;28;20556;-58
2022/03/10 08:14:31;;;;;;;18.10;9.90;;;6.70;73.40;;;;;;4990154;28;20030;-57
2022/03/10 08:16:56;;;;;;;19.83;10.75;;;6.70;73.20;;;;;;4991393;28;20030;-58
2022/03/10 08:19:22;;;;;;;16.67;10.00;;;6.80;72.60;;;;;;4991295;28;20739;-60
2022/03/10 08:21:48;;;;;;;22.73;9.93;;;6.90;72.60;;;;;;4990799;28;20484;-61
2022/03/10 08:24:14;;;;;;;23.00;11.32;;;7.00;72.30;;;;;;4990296;28;20038;-59
2022/03/10 08:26:40;;;;;;;20.83;10.73;;;7.00;72.80;;;;;;4990282;28;20100;-58
2022/03/10 08:29:06;;;;;;;20.70;10.93;;;7.10;72.80;;;;;;4991028;28;20142;-59
2022/03/10 08:31:32;;;;;;;19.27;10.73;;;7.20;73.20;;;;;;4989788;28;20552;-59
2022/03/10 08:33:58;;;;;;;26.58;11.75;;;7.30;72.20;;;;;;4990131;28;20118;-60
2022/03/10 08:36:23;;;;;;;20.13;10.35;;;7.40;73.40;;;;;;4990214;28;20038;-60
2022/03/10 08:38:49;;;;;;;19.15;9.80;;;7.40;72.70;;;;;;4990164;28;20022;-59
2022/03/10 08:41:14;;;;;;;20.20;10.65;;;7.50;73.40;;;;;;4990831;28;20034;-59
2022/03/10 08:43:40;;;;;;;18.83;10.32;;;7.60;72.60;;;;;;4989892;28;20560;-60
2022/03/10 08:46:06;;;;;;;22.38;10.48;;;7.70;71.40;;;;;;4989810;28;20037;-58
2022/03/10 08:48:32;;;;;;;18.77;9.88;;;7.80;72.30;;;;;;4997330;28;20034;-60
2022/03/10 08:51:02;;;;;;;17.70;10.48;;;8.00;70.90;;;;;;4998245;28;20407;-58
2022/03/10 08:53:29;;;;;;;20.23;10.70;;;8.10;71.60;;;;;;4989346;28;20026;-57
2022/03/10 08:55:55;;;;;;;20.02;10.63;;;8.20;71.80;;;;;;4991004;28;20042;-58
2022/03/10 08:58:21;;;;;;;22.98;11.75;;;8.30;72.80;;;;;;4990392;28;20428;-58
2022/03/10 09:00:46;;;;;;;24.38;11.23;;;8.40;70.30;;;;;;4992522;28;20028;-58
2022/03/10 09:03:12;;;;;;;20.95;10.15;;;8.50;71.60;;;;;;4978069;28;20045;-60
2022/03/10 09:05:39;;;;;;;21.40;10.70;;;8.60;71.40;;;;;;4991850;28;20527;-59
2022/03/10 09:08:05;;;;;;;19.38;10.00;;;8.80;70.80;;;;;;4995548;28;20643;-58
2022/03/10 09:10:30;;;;;;;18.50;10.02;;;8.90;71.90;;;;;;5000454;28;20034;-59
2022/03/10 09:12:56;;;;;;;17.73;9.35;;;9.00;71.20;;;;;;4994361;28;20037;-59
2022/03/10 09:15:22;;;;;;;16.30;9.25;;;9.20;72.50;;;;;;4999149;28;20061;-61
2022/03/10 09:17:48;;;;;;;24.00;9.85;;;9.40;71.20;;;;;;4985444;28;20031;-57
2022/03/10 09:20:14;;;;;;;17.55;9.70;;;10.10;70.30;;;;;;4990848;28;20029;-57
2022/03/10 09:22:40;;;;;;;15.30;9.73;;;10.90;69.40;;;;;;4985674;28;20038;-58
2022/03/10 09:25:09;;;;;;;18.65;10.73;;;11.60;66.40;;;;;;4990002;28;20259;-59
2022/03/10 09:27:35;;;;;;;17.13;10.02;;;12.50;63.90;;;;;;4977705;28;20061;-58
2022/03/10 09:30:02;;;;;;;17.95;10.73;;;13.00;61.90;;;;;;4971418;28;20053;-59
2022/03/10 09:32:34;;;;;;;17.85;10.82;;;13.30;62.00;;;;;;4983944;28;20089;-57
2022/03/10 09:34:59;;;;;;;18.77;10.40;;;13.40;63.30;;;;;;4977748;28;20062;-57
2022/03/10 09:37:26;;;;;;;14.38;10.30;;;14.00;63.20;;;;;;4987128;28;20480;-59
2022/03/10 09:39:52;;;;;;;15.93;10.07;;;14.40;60.10;;;;;;5000560;28;20034;-59
2022/03/10 09:42:20;;;;;;;18.00;8.95;;;14.70;58.90;;;;;;4998572;28;20113;-59
2022/03/10 09:44:48;;;;;;;15.50;8.30;;;14.80;58.60;;;;;;4996251;28;20089;-58
2022/03/10 09:47:15;;;;;;;15.65;9.95;;;14.80;57.50;;;;;;4999700;28;20495;-58
2022/03/10 09:49:40;;;;;;;19.40;11.35;;;14.90;57.60;;;;;;4990495;28;20030;-60
2022/03/10 09:52:08;;;;;;;13.77;9.27;;;15.10;57.50;;;;;;4989086;28;20026;-58
2022/03/10 09:54:34;;;;;;;13.10;9.00;;;15.40;58.30;;;;;;4987954;28;20030;-57
2022/03/10 09:57:00;;;;;;;12.73;8.73;;;15.80;55.20;;;;;;4990763;28;20033;-58
2022/03/10 09:59:27;;;;;;;12.80;8.95;;;15.80;56.00;;;;;;4987262;28;20392;-56
2022/03/10 10:01:54;;;;;;;12.73;9.27;;;16.00;55.50;;;;;;4989874;28;20058;-58
2022/03/10 10:04:21;;;;;;;11.52;8.30;;;16.00;55.20;;;;;;4988753;28;20022;-56
2022/03/10 10:07:04;;;;;;;14.38;9.15;;;16.10;54.80;;;;;;4966091;28;20046;-58
2022/03/10 10:09:54;;;;;;;12.43;9.00;;;16.10;54.90;;;;;;4992281;28;20049;-56
2022/03/10 10:12:30;;;;;;;14.82;9.05;;;16.30;53.80;;;;;;5000936;28;20026;-58
2022/03/10 10:14:57;;;;;;;15.38;9.32;;;16.40;54.20;;;;;;4999569;28;20395;-57
2022/03/10 10:17:27;;;;;;;16.27;9.68;;;16.50;54.20;;;;;;4998957;28;20060;-59
2022/03/10 10:19:57;;;;;;;13.02;8.55;;;16.00;52.60;;;;;;4998332;28;20034;-60
2022/03/10 10:22:24;;;;;;;14.93;8.45;;;16.10;53.90;;;;;;4990478;28;20054;-56
2022/03/10 10:24:57;;;;;;;12.55;8.00;;;15.80;53.70;;;;;;5013308;28;20030;-57
2022/03/10 10:27:34;;;;;;;14.20;9.25;;;15.60;54.90;;;;;;5009298;28;20088;-57
2022/03/10 10:30:02;;;;;;;13.07;8.98;;;15.40;54.90;;;;;;5001371;28;20378;-57
2022/03/10 10:32:55;;;;;;;18.05;10.63;;;15.20;54.90;;;;;;4999445;28;20026;-57
2022/03/10 10:35:21;;;;;;;12.57;7.95;;;14.80;54.20;;;;;;5004381;28;20104;-61
2022/03/10 10:37:52;;;;;;;14.05;8.65;;;14.60;55.40;;;;;;4997236;28;20042;-61
2022/03/10 10:40:26;;;;;;;11.02;7.82;;;14.40;55.30;;;;;;4994499;28;20117;-60
2022/03/10 10:42:52;;;;;;;11.52;7.80;;;14.20;54.20;;;;;;5007443;28;20045;-57
2022/03/10 10:45:34;;;;;;;16.05;8.30;;;14.00;55.90;;;;;;5013417;28;20104;-57
2022/03/10 10:48:06;;;;;;;13.38;7.57;;;13.80;55.50;;;;;;5012622;28;20056;-61
2022/03/10 10:50:33;;;;;;;13.07;8.38;;;13.80;56.00;;;;;;5004168;28;20536;-58
2022/03/10 10:52:59;;;;;;;14.20;7.78;;;13.90;57.10;;;;;;4996926;28;20504;-60
2022/03/10 10:55:39;;;;;;;13.23;8.13;;;13.90;56.30;;;;;;5000769;28;20034;-60
2022/03/10 10:58:06;;;;;;;13.15;8.25;;;13.90;56.10;;;;;;5005854;28;20030;-60
2022/03/10 11:00:41;;;;;;;11.88;8.10;;;14.00;56.20;;;;;;5013054;28;20036;-57
2022/03/10 11:03:31;;;;;;;17.80;8.65;;;14.00;56.90;;;;;;5010364;28;20033;-58
2022/03/10 11:05:57;;;;;;;13.55;8.60;;;13.90;56.50;;;;;;5011762;28;20087;-61
2022/03/10 11:08:25;;;;;;;12.95;8.10;;;14.00;56.00;;;;;;5001516;28;20270;-59
2022/03/10 11:10:51;;;;;;;16.30;7.93;;;14.00;54.50;;;;;;4997312;28;20030;-61
2022/03/10 11:13:17;;;;;;;13.23;8.10;;;13.90;55.50;;;;;;4997000;28;20108;-59
2022/03/10 11:15:44;;;;;;;12.82;7.75;;;13.90;56.10;;;;;;5007705;28;20462;-60
2022/03/10 11:18:12;;;;;;;16.25;8.02;;;13.90;55.70;;;;;;5006820;28;20034;-61
2022/03/10 11:20:49;;;;;;;13.05;8.27;;;13.90;56.00;;;;;;5003796;28;20036;-59
2022/03/10 11:24:02;;;;;;;13.10;8.45;;;14.00;55.70;;;;;;4999016;28;20618;-58
2022/03/10 11:26:34;;;;;;;15.52;8.57;;;14.00;56.20;;;;;;4962183;28;20542;-61
2022/03/10 11:29:01;;;;;;;13.05;8.82;;;14.10;56.80;;;;;;5004005;28;20033;-60
2022/03/10 11:31:31;;;;;;;24.75;13.90;;;14.20;56.10;;;;;;5010331;28;20018;-59
2022/03/10 11:33:57;;;;;;;11.63;7.65;;;14.20;55.20;;;;;;5006499;28;20403;-58
2022/03/10 11:36:24;;;;;;;11.35;6.97;;;14.30;55.30;;;;;;5006878;28;20029;-59
2022/03/10 11:38:54;;;;;;;13.80;7.43;;;14.40;54.00;;;;;;5004557;28;20021;-56
2022/03/10 11:41:24;;;;;;;16.77;8.60;;;14.40;54.40;;;;;;4989476;28;20131;-60
2022/03/10 11:44:00;;;;;;;14.25;7.97;;;14.40;54.60;;;;;;5004404;28;20069;-60
2022/03/10 11:46:28;;;;;;;13.63;8.73;;;14.40;54.40;;;;;;5010500;28;20022;-59
2022/03/10 11:49:04;;;;;;;15.70;7.72;;;14.40;54.70;;;;;;5007480;28;20030;-59
2022/03/10 11:51:45;;;;;;;12.95;8.20;;;14.40;54.80;;;;;;5000187;28;20067;-61
2022/03/10 11:54:11;;;;;;;14.25;8.05;;;14.40;54.20;;;;;;5003155;28;20050;-61
2022/03/10 11:56:43;;;;;;;12.35;7.40;;;14.40;54.30;;;;;;5005829;28;20038;-60
2022/03/10 11:59:22;;;;;;;10.25;7.18;;;14.40;54.40;;;;;;5004498;28;20105;-58
2022/03/10 12:01:47;;;;;;;11.52;6.72;;;14.30;54.60;;;;;;5004328;28;20080;-59
2022/03/10 12:04:18;;;;;;;14.48;6.82;;;14.30;54.40;;;;;;5007106;28;20029;-59
2022/03/10 12:06:53;;;;;;;12.63;7.40;;;14.30;54.60;;;;;;5000938;28;20408;-59
2022/03/10 12:09:31;;;;;;;16.80;6.70;;;14.30;54.90;;;;;;4997133;28;20445;-58
2022/03/10 12:12:16;;;;;;;11.90;6.82;;;14.40;56.40;;;;;;4998058;28;20029;-59
2022/03/10 12:14:42;;;;;;;11.02;6.45;;;14.40;55.20;;;;;;5002431;28;20054;-60
2022/03/10 12:17:44;;;;;;;14.27;7.00;;;14.40;55.00;;;;;;4998961;28;20560;-58
2022/03/10 12:20:17;;;;;;;11.85;7.00;;;14.40;54.50;;;;;;5002195;28;20108;-59
2022/03/10 12:23:09;;;;;;;12.10;6.00;;;14.40;55.00;;;;;;5009708;28;20037;-59
2022/03/10 12:25:47;;;;;;;11.05;6.13;;;14.30;53.60;;;;;;5004059;28;20097;-56
2022/03/10 12:28:33;;;;;;;10.27;5.63;;;14.30;54.90;;;;;;4998805;28;20038;-60
2022/03/10 12:31:19;;;;;;;8.95;5.63;;;14.30;55.50;;;;;;4991901;28;20043;-59
2022/03/10 12:33:48;;;;;;;9.18;5.68;;;14.40;55.20;;;;;;5007776;28;20112;-60
2022/03/10 12:36:43;;;;;;;11.73;5.70;;;14.30;55.70;;;;;;5008962;28;20088;-60
2022/03/10 12:39:35;;;;;;;8.82;5.28;;;14.30;55.40;;;;;;5007219;28;20037;-60
2022/03/10 12:42:04;;;;;;;8.55;5.13;;;14.30;54.80;;;;;;5000471;28;20094;-59
2022/03/10 12:44:30;;;;;;;12.23;5.47;;;14.30;55.80;;;;;;5005929;28;20022;-57
2022/03/10 12:46:57;;;;;;;11.13;5.38;;;14.30;54.90;;;;;;5004597;28;20044;-61
2022/03/10 12:49:42;;;;;;;9.25;5.97;;;14.30;55.60;;;;;;5003448;28;20026;-59
2022/03/10 12:52:11;;;;;;;10.55;5.30;;;14.40;55.60;;;;;;5008964;28;20109;-61